Attica, New York
Current Conditions -  °F | °C
As of 3:20 PM on Wednesday 26 Nov 2014 (Local Time) from KBUF Reporting Station
Light Snow Light Snow  
Wind Chill: 26°   Ceiling: 3000
Heat Index: 32°   Visibility: 4mi
Dew Point: 29°   Wind: 7mph
Humidity: 88%   Direction: 30°NNE
Pressure: 30.09"   Gusts: NA
Location:  42.86°N, 78.28°W
Report Text: KBUF 262020Z 03006KT 4SM -SN BR SCT007 BKN030 OVC035 00/M02 A3009 RMK AO2 P0000 T00001017
Loading
Personal Weather Stations






























Interactive Weather Map New forecast layout! Learn more

10-Day Weather Forecast

Advertisements
Track Severe Weather on mobile